createdAt,value
2019-02-27T00:01:53.761Z,68.90
2019-02-27T00:04:23.467Z,68.96
2019-02-27T00:06:53.177Z,69.23
2019-02-27T00:09:22.920Z,69.06
2019-02-27T00:11:52.554Z,68.20
2019-02-27T00:14:22.182Z,68.68
2019-02-27T00:16:51.845Z,69.49
2019-02-27T00:19:21.492Z,70.46
2019-02-27T00:21:51.279Z,70.20
2019-02-27T00:24:20.922Z,70.22
2019-02-27T00:26:50.665Z,69.29
2019-02-27T00:29:20.304Z,68.93
2019-02-27T00:31:49.979Z,69.50
2019-02-27T00:34:19.576Z,71.17
2019-02-27T00:36:49.271Z,71.50
2019-02-27T00:39:18.939Z,71.64
2019-02-27T00:41:48.564Z,70.77
2019-02-27T00:44:18.167Z,70.75
2019-02-27T00:46:47.804Z,71.60
2019-02-27T00:49:17.401Z,71.06
2019-02-27T00:51:47.189Z,72.65
2019-02-27T00:54:16.785Z,72.63
2019-02-27T00:56:46.477Z,72.75
2019-02-27T00:59:16.139Z,72.57
2019-02-27T01:01:47.508Z,72.07
2019-02-27T01:04:17.177Z,72.96
2019-02-27T01:06:47.551Z,73.04
2019-02-27T01:09:17.931Z,74.03
2019-02-27T01:11:51.461Z,73.95
2019-02-27T01:14:19.029Z,73.79
2019-02-27T01:16:50.180Z,73.85
2019-02-27T01:19:19.960Z,73.28
2019-02-27T01:21:49.612Z,73.66
2019-02-27T01:24:19.232Z,74.63
2019-02-27T01:26:48.839Z,74.80
2019-02-27T01:29:18.786Z,74.46
2019-02-27T01:31:48.499Z,74.25
2019-02-27T01:34:18.361Z,74.71
2019-02-27T01:36:48.054Z,74.33
2019-02-27T01:39:17.641Z,74.76
2019-02-27T01:41:47.602Z,74.12
2019-02-27T01:44:17.210Z,73.98
2019-02-27T01:46:46.859Z,74.63
2019-02-27T01:49:16.821Z,75.25
2019-02-27T01:51:46.618Z,75.36
2019-02-27T01:54:16.237Z,74.87
2019-02-27T01:56:45.901Z,75.18
2019-02-27T01:59:16.909Z,75.11
2019-02-27T02:01:46.918Z,75.46
2019-02-27T02:04:19.976Z,75.22
2019-02-27T02:06:47.933Z,74.98
2019-02-27T02:09:36.184Z,75.52
2019-02-27T02:12:19.293Z,75.44
2019-02-27T02:14:59.312Z,75.49
2019-02-27T02:17:45.609Z,74.97
2019-02-27T02:20:27.239Z,75.54
2019-02-27T02:23:19.764Z,76.08
2019-02-27T02:26:16.269Z,76.13
2019-02-27T02:29:40.675Z,76.30
2019-02-27T02:32:25.855Z,76.39
2019-02-27T02:35:16.382Z,75.85
2019-02-27T02:38:12.419Z,76.13
2019-02-27T02:41:01.570Z,76.86
2019-02-27T02:44:07.952Z,77.18
2019-02-27T02:47:21.040Z,77.29
2019-02-27T02:50:22.421Z,78.19
2019-02-27T02:53:11.805Z,78.64
2019-02-27T02:56:04.265Z,78.57
2019-02-27T02:59:13.247Z,77.14
2019-02-27T03:01:50.200Z,76.58
2019-02-27T03:04:47.951Z,76.11
2019-02-27T03:07:35.407Z,76.36
2019-02-27T03:10:18.585Z,75.79
2019-02-27T03:12:58.398Z,75.99
2019-02-27T03:15:56.769Z,76.29
2019-02-27T03:18:48.838Z,76.11
2019-02-27T03:21:53.201Z,76.73
2019-02-27T03:24:36.123Z,76.71
2019-02-27T03:27:18.346Z,76.10
2019-02-27T03:30:10.217Z,75.68
2019-02-27T03:32:57.560Z,75.79
2019-02-27T03:35:48.116Z,76.64
2019-02-27T03:38:55.839Z,76.74
2019-02-27T03:41:59.312Z,75.49
2019-02-27T03:44:55.750Z,75.84
2019-02-27T03:47:39.721Z,76.04
2019-02-27T03:50:30.513Z,76.41
2019-02-27T03:53:13.412Z,76.41
2019-02-27T03:56:09.786Z,75.88
2019-02-27T03:59:17.719Z,75.70
2019-02-27T04:02:14.601Z,75.63
2019-02-27T04:05:24.384Z,75.35
2019-02-27T04:08:08.745Z,75.28
2019-02-27T04:10:38.487Z,76.01
2019-02-27T04:13:08.148Z,74.22
2019-02-27T04:15:38.018Z,74.37
2019-02-27T04:18:05.942Z,75.63
2019-02-27T04:20:35.534Z,74.42
2019-02-27T04:23:11.287Z,74.50
2019-02-27T04:25:36.803Z,74.66
2019-02-27T04:28:06.497Z,74.72
2019-02-27T04:30:36.258Z,75.23
2019-02-27T04:33:06.540Z,75.34
2019-02-27T04:35:39.364Z,75.77
2019-02-27T04:38:07.484Z,75.71
2019-02-27T04:40:37.159Z,75.03
2019-02-27T04:43:06.855Z,74.62
2019-02-27T04:45:36.458Z,74.79
2019-02-27T04:48:06.093Z,75.12
2019-02-27T04:50:35.686Z,74.70
2019-02-27T04:53:05.313Z,74.35
2019-02-27T04:55:34.924Z,74.52
2019-02-27T04:58:08.662Z,74.46
2019-02-27T05:00:36.179Z,74.39
2019-02-27T05:03:05.933Z,74.38
2019-02-27T05:05:35.598Z,74.51
2019-02-27T05:08:06.878Z,74.51
2019-02-27T05:10:38.137Z,74.26
2019-02-27T05:13:07.832Z,74.36
2019-02-27T05:15:39.489Z,74.21
2019-02-27T05:18:08.925Z,74.48
2019-02-27T05:20:38.595Z,74.51
2019-02-27T05:23:08.302Z,74.49
2019-02-27T05:25:37.900Z,73.99
2019-02-27T05:28:07.597Z,73.35
2019-02-27T05:30:37.310Z,73.28
2019-02-27T05:33:06.942Z,73.48
2019-02-27T05:35:36.639Z,73.32
2019-02-27T05:38:06.324Z,72.99
2019-02-27T05:40:36.123Z,72.56
2019-02-27T05:43:05.835Z,72.84
2019-02-27T05:45:35.494Z,73.77
2019-02-27T05:48:05.191Z,74.41
2019-02-27T05:50:34.916Z,75.00
2019-02-27T05:53:04.555Z,74.61
2019-02-27T05:55:34.163Z,74.43
2019-02-27T05:58:03.774Z,74.64
2019-02-27T06:00:33.447Z,74.38
2019-02-27T06:03:03.093Z,74.27
2019-02-27T06:05:33.668Z,74.19
2019-02-27T06:08:04.036Z,74.09
2019-02-27T06:10:33.740Z,74.00
2019-02-27T06:13:03.349Z,74.63
2019-02-27T06:15:32.987Z,73.89
2019-02-27T06:18:02.641Z,73.53
2019-02-27T06:20:32.311Z,72.63
2019-02-27T06:23:04.486Z,72.13
2019-02-27T06:25:33.346Z,72.20
2019-02-27T06:28:02.985Z,72.33
2019-02-27T06:30:32.744Z,71.71
2019-02-27T06:33:02.338Z,71.37
2019-02-27T06:35:34.245Z,71.36
2019-02-27T06:38:03.375Z,71.53
2019-02-27T06:40:33.032Z,71.36
2019-02-27T06:43:02.688Z,71.32
2019-02-27T06:45:32.338Z,71.21
2019-02-27T06:48:01.961Z,71.31
2019-02-27T06:50:31.628Z,71.06
2019-02-27T06:53:01.375Z,68.72
2019-02-27T06:55:31.280Z,66.41
2019-02-27T06:58:00.951Z,65.59
2019-02-27T07:00:36.755Z,64.80
2019-02-27T07:03:06.400Z,64.91
2019-02-27T07:05:36.065Z,65.29
2019-02-27T07:08:05.688Z,65.91
2019-02-27T07:10:35.373Z,66.02
2019-02-27T07:13:05.143Z,65.49
2019-02-27T07:15:34.736Z,62.72
2019-02-27T07:18:06.078Z,58.66
2019-02-27T07:20:35.773Z,56.91
2019-02-27T07:23:05.556Z,55.50
2019-02-27T07:25:35.224Z,53.34
2019-02-27T07:28:08.422Z,51.99
2019-02-27T07:30:36.317Z,51.15
2019-02-27T07:33:06.750Z,49.94
2019-02-27T07:35:36.960Z,48.38
2019-02-27T07:38:06.547Z,46.63
2019-02-27T07:40:36.193Z,47.13
2019-02-27T07:43:06.409Z,47.26
2019-02-27T07:45:36.165Z,46.74
2019-02-27T07:48:05.940Z,46.46
2019-02-27T07:50:35.625Z,45.21
2019-02-27T07:53:05.385Z,44.26
2019-02-27T07:55:35.044Z,43.49
2019-02-27T07:58:04.738Z,43.02
2019-02-27T08:00:34.536Z,41.52
2019-02-27T08:03:04.244Z,40.57
2019-02-27T08:05:33.953Z,39.27
2019-02-27T08:08:03.580Z,38.32
2019-02-27T08:10:36.711Z,35.99
2019-02-27T08:13:04.821Z,33.62
2019-02-27T08:15:34.573Z,31.24
2019-02-27T08:18:04.370Z,29.44
2019-02-27T08:20:34.262Z,27.35
2019-02-27T08:23:03.932Z,26.54
2019-02-27T08:25:33.566Z,26.50
2019-02-27T08:28:03.228Z,25.00
2019-02-27T08:30:32.912Z,24.36
2019-02-27T08:33:02.713Z,23.25
2019-02-27T08:35:32.575Z,22.54
2019-02-27T08:38:02.965Z,21.64
2019-02-27T08:40:32.912Z,20.92
2019-02-27T08:43:02.501Z,21.33
2019-02-27T08:45:32.094Z,19.76
2019-02-27T08:48:01.715Z,19.77
2019-02-27T08:50:32.263Z,18.51
2019-02-27T08:53:01.987Z,18.03
2019-02-27T08:55:31.629Z,18.01
2019-02-27T08:58:01.295Z,16.81
2019-02-27T09:00:34.554Z,16.08
2019-02-27T09:03:04.361Z,16.03
2019-02-27T09:05:34.128Z,14.36
2019-02-27T09:08:03.788Z,13.48
2019-02-27T09:10:33.476Z,12.48
2019-02-27T09:13:05.718Z,12.47
2019-02-27T09:15:34.599Z,12.62
2019-02-27T09:18:04.628Z,11.13
2019-02-27T09:20:34.374Z,11.39
2019-02-27T09:23:04.102Z,11.69
2019-02-27T09:25:33.788Z,11.32
2019-02-27T09:28:03.691Z,11.14
2019-02-27T09:30:33.402Z,10.48
2019-02-27T09:33:02.996Z,9.83
2019-02-27T09:35:37.756Z,10.85
2019-02-27T09:38:03.961Z,10.02
2019-02-27T09:40:38.653Z,10.03
2019-02-27T09:43:06.287Z,9.99
2019-02-27T09:45:36.966Z,9.86
2019-02-27T09:48:06.870Z,9.66
2019-02-27T09:50:47.668Z,9.17
2019-02-27T09:53:14.179Z,9.81
2019-02-27T09:55:43.962Z,10.20
2019-02-27T09:58:14.092Z,10.56
2019-02-27T10:00:47.403Z,9.21
2019-02-27T10:03:21.158Z,10.09
2019-02-27T10:05:48.943Z,10.47
2019-02-27T10:08:18.691Z,10.18
2019-02-27T10:10:48.475Z,10.95
2019-02-27T10:13:18.187Z,10.49
2019-02-27T10:15:48.254Z,10.82
2019-02-27T10:18:18.987Z,12.14
2019-02-27T10:20:49.322Z,11.79
2019-02-27T10:23:19.020Z,11.04
2019-02-27T10:25:49.921Z,10.84
2019-02-27T10:28:19.699Z,10.76
2019-02-27T10:30:50.097Z,10.71
2019-02-27T10:33:20.455Z,10.03
2019-02-27T10:35:50.246Z,9.28
2019-02-27T10:38:20.000Z,9.83
2019-02-27T10:40:49.692Z,9.98
2019-02-27T10:43:21.054Z,9.25
2019-02-27T10:45:50.883Z,8.20
2019-02-27T10:48:20.498Z,8.61
2019-02-27T10:50:50.167Z,8.95
2019-02-27T10:53:19.869Z,8.31
2019-02-27T10:55:50.029Z,8.70
2019-02-27T10:58:19.774Z,8.03
2019-02-27T11:00:50.295Z,9.27
2019-02-27T11:03:19.953Z,8.86
2019-02-27T11:05:52.327Z,9.19
2019-02-27T11:08:21.254Z,8.88
2019-02-27T11:10:50.916Z,8.92
2019-02-27T11:13:20.687Z,9.12
2019-02-27T11:15:50.444Z,9.94
2019-02-27T11:18:20.134Z,9.85
2019-02-27T11:20:50.040Z,9.46
2019-02-27T11:23:19.699Z,9.45
2019-02-27T11:25:49.465Z,10.17
2019-02-27T11:28:19.163Z,11.40
2019-02-27T11:30:50.942Z,11.86
2019-02-27T11:33:25.479Z,12.36
2019-02-27T11:35:51.738Z,13.14
2019-02-27T11:38:24.135Z,14.16
2019-02-27T11:40:52.989Z,14.01
2019-02-27T11:43:23.162Z,13.42
2019-02-27T11:45:57.795Z,13.62
2019-02-27T11:48:24.069Z,13.93
2019-02-27T11:50:53.762Z,14.82
2019-02-27T11:53:23.480Z,14.74
2019-02-27T11:55:53.084Z,13.82
2019-02-27T11:58:22.830Z,14.77
2019-02-27T12:00:52.530Z,14.86
2019-02-27T12:03:22.125Z,15.61
2019-02-27T12:05:51.814Z,15.44
2019-02-27T12:08:22.374Z,15.23
2019-02-27T12:10:53.015Z,15.88
2019-02-27T12:13:22.635Z,15.98
2019-02-27T12:15:54.274Z,16.32
2019-02-27T12:18:24.002Z,16.20
2019-02-27T12:20:54.168Z,15.92
2019-02-27T12:23:23.828Z,16.42
2019-02-27T12:25:53.523Z,16.56
2019-02-27T12:28:23.255Z,16.84
2019-02-27T12:30:52.952Z,16.31
2019-02-27T12:33:22.637Z,17.01
2019-02-27T12:35:55.006Z,16.49
2019-02-27T12:38:24.686Z,16.43
2019-02-27T12:40:58.239Z,16.69
2019-02-27T12:43:25.763Z,17.02
2019-02-27T12:45:57.703Z,16.59
2019-02-27T12:48:26.857Z,16.81
2019-02-27T12:50:56.605Z,16.87
2019-02-27T12:53:26.319Z,17.35
2019-02-27T12:55:55.977Z,18.10
2019-02-27T12:58:25.623Z,18.03
2019-02-27T13:00:55.291Z,17.98
2019-02-27T13:03:24.968Z,18.66
2019-02-27T13:05:54.700Z,18.42
2019-02-27T13:08:24.438Z,18.40
2019-02-27T13:10:54.142Z,18.05
2019-02-27T13:13:25.909Z,18.83
2019-02-27T13:15:58.182Z,17.97
2019-02-27T13:18:31.736Z,17.85
2019-02-27T13:20:59.262Z,18.09
2019-02-27T13:23:28.899Z,19.00
2019-02-27T13:26:00.540Z,18.40
2019-02-27T13:28:30.308Z,18.16
2019-02-27T13:30:59.919Z,18.22
2019-02-27T13:33:29.550Z,18.18
2019-02-27T13:35:59.809Z,18.47
2019-02-27T13:38:30.068Z,18.37
2019-02-27T13:40:59.698Z,18.03
2019-02-27T13:43:29.365Z,18.73
2019-02-27T13:45:59.062Z,19.75
2019-02-27T13:48:28.774Z,19.97
2019-02-27T13:50:59.343Z,19.85
2019-02-27T13:53:29.867Z,20.04
2019-02-27T13:55:59.490Z,20.73
2019-02-27T13:58:29.107Z,21.00
2019-02-27T14:00:58.898Z,21.16
2019-02-27T14:03:28.540Z,21.38
2019-02-27T14:05:58.206Z,20.85
2019-02-27T14:08:29.052Z,21.69
2019-02-27T14:10:59.374Z,21.33
2019-02-27T14:13:30.805Z,21.23
2019-02-27T14:16:01.524Z,21.78
2019-02-27T14:18:31.364Z,21.65
2019-02-27T14:21:01.654Z,21.23
2019-02-27T14:23:32.037Z,21.32
2019-02-27T14:26:05.644Z,21.76
2019-02-27T14:28:33.224Z,21.97
2019-02-27T14:31:02.929Z,21.54
2019-02-27T14:33:32.515Z,22.00
2019-02-27T14:36:02.291Z,21.51
2019-02-27T14:38:31.892Z,21.36
2019-02-27T14:41:01.669Z,21.57
2019-02-27T14:43:31.483Z,20.95
2019-02-27T14:46:01.852Z,21.42
2019-02-27T14:48:31.478Z,21.09
2019-02-27T14:51:01.056Z,21.30
2019-02-27T14:53:30.750Z,20.83
2019-02-27T14:56:00.427Z,21.19
2019-02-27T14:58:30.050Z,21.26
2019-02-27T15:00:59.791Z,21.00
2019-02-27T15:03:30.135Z,21.60
2019-02-27T15:05:59.832Z,21.04
2019-02-27T15:08:29.471Z,21.29
2019-02-27T15:10:59.149Z,21.25
2019-02-27T15:13:28.977Z,21.10
2019-02-27T15:15:58.774Z,21.01
2019-02-27T15:18:28.472Z,20.92
2019-02-27T15:20:58.144Z,21.41
2019-02-27T15:23:28.380Z,21.35
2019-02-27T15:25:58.131Z,21.30
2019-02-27T15:28:33.054Z,21.67
2019-02-27T15:30:59.171Z,21.49
2019-02-27T15:33:28.897Z,20.95
2019-02-27T15:35:58.645Z,21.06
2019-02-27T15:38:28.319Z,20.26
2019-02-27T15:41:02.381Z,21.05
2019-02-27T15:43:29.413Z,21.05
2019-02-27T15:45:59.221Z,20.68
2019-02-27T15:48:28.832Z,20.87
2019-02-27T15:50:58.430Z,20.32
2019-02-27T15:53:28.404Z,20.52
2019-02-27T15:55:58.217Z,20.75
2019-02-27T15:58:28.101Z,20.76
2019-02-27T16:00:58.489Z,20.46
2019-02-27T16:03:28.269Z,20.62
2019-02-27T16:05:57.981Z,20.63
2019-02-27T16:08:27.610Z,20.65
2019-02-27T16:10:57.281Z,20.64
2019-02-27T16:13:26.924Z,21.35
2019-02-27T16:15:56.842Z,21.13
2019-02-27T16:18:26.522Z,21.09
2019-02-27T16:20:56.240Z,20.68
2019-02-27T16:23:25.892Z,21.26
2019-02-27T16:25:56.589Z,21.41
2019-02-27T16:28:26.286Z,21.70
2019-02-27T16:30:56.071Z,21.78
2019-02-27T16:33:25.868Z,21.82
2019-02-27T16:35:55.523Z,21.99
2019-02-27T16:38:25.226Z,22.10
2019-02-27T16:40:54.904Z,22.13
2019-02-27T16:43:24.558Z,22.70
2019-02-27T16:45:54.252Z,22.48
2019-02-27T16:48:23.906Z,22.85
2019-02-27T16:50:53.591Z,22.90
2019-02-27T16:53:23.241Z,22.43
2019-02-27T16:55:52.927Z,22.41
2019-02-27T16:58:22.549Z,23.24
2019-02-27T17:00:55.225Z,22.98
2019-02-27T17:03:23.730Z,22.63
2019-02-27T17:05:53.354Z,22.35
2019-02-27T17:08:23.079Z,21.81
2019-02-27T17:10:52.794Z,21.84
2019-02-27T17:13:22.542Z,23.32
2019-02-27T17:15:52.198Z,24.27
2019-02-27T17:18:27.853Z,25.46
2019-02-27T17:20:53.256Z,27.93
2019-02-27T17:23:22.839Z,28.73
2019-02-27T17:25:52.502Z,29.92
2019-02-27T17:28:22.091Z,30.79
2019-02-27T17:30:51.735Z,30.88
2019-02-27T17:33:21.383Z,32.16
2019-02-27T17:35:53.043Z,33.41
2019-02-27T17:38:22.479Z,33.70
2019-02-27T17:40:52.555Z,34.34
2019-02-27T17:43:22.284Z,34.87
2019-02-27T17:45:52.044Z,35.23
2019-02-27T17:48:21.672Z,34.89
2019-02-27T17:50:51.352Z,34.78
2019-02-27T17:53:22.895Z,34.33
2019-02-27T17:55:52.383Z,34.85
2019-02-27T17:58:22.080Z,34.82
2019-02-27T18:01:05.611Z,35.19
2019-02-27T18:03:36.658Z,35.36
2019-02-27T18:06:06.826Z,35.33
2019-02-27T18:08:36.559Z,35.43
2019-02-27T18:11:06.249Z,35.42
2019-02-27T18:13:36.295Z,35.77
2019-02-27T18:16:06.444Z,35.69
2019-02-27T18:18:36.112Z,34.98
2019-02-27T18:21:06.124Z,35.12
2019-02-27T18:23:35.757Z,35.00
2019-02-27T18:26:05.686Z,35.29
2019-02-27T18:28:35.300Z,35.44
2019-02-27T18:31:05.241Z,35.78
2019-02-27T18:33:34.926Z,36.00
2019-02-27T18:36:05.838Z,36.38
2019-02-27T18:38:35.656Z,36.54
2019-02-27T18:41:05.354Z,36.59
2019-02-27T18:43:35.105Z,36.77
2019-02-27T18:46:04.834Z,36.81
2019-02-27T18:48:34.589Z,36.45
2019-02-27T18:51:04.469Z,36.50
2019-02-27T18:53:34.120Z,36.40
2019-02-27T18:56:03.756Z,36.77
2019-02-27T18:58:33.870Z,36.72
2019-02-27T19:01:09.501Z,36.86
2019-02-27T19:03:36.684Z,36.76
2019-02-27T19:06:06.482Z,36.56
2019-02-27T19:08:36.201Z,36.51
2019-02-27T19:11:06.216Z,36.60
2019-02-27T19:13:36.000Z,36.33
2019-02-27T19:16:05.949Z,36.77
2019-02-27T19:18:35.714Z,37.04
2019-02-27T19:21:05.580Z,37.36
2019-02-27T19:23:35.335Z,37.62
2019-02-27T19:26:06.359Z,38.07
2019-02-27T19:28:36.696Z,38.39
2019-02-27T19:31:06.896Z,38.38
2019-02-27T19:33:36.930Z,38.75
2019-02-27T19:36:06.740Z,39.14
2019-02-27T19:38:36.339Z,39.99
2019-02-27T19:41:06.316Z,40.40
2019-02-27T19:43:36.035Z,40.30
2019-02-27T19:46:06.995Z,40.42
2019-02-27T19:48:37.308Z,41.06
2019-02-27T19:51:07.169Z,41.84
2019-02-27T19:53:39.363Z,42.56
2019-02-27T19:56:08.573Z,42.67
2019-02-27T19:58:38.332Z,43.14
2019-02-27T20:01:09.769Z,43.09
2019-02-27T20:03:39.709Z,43.58
2019-02-27T20:06:09.457Z,43.33
2019-02-27T20:08:44.480Z,43.33
2019-02-27T20:11:11.069Z,43.42
2019-02-27T20:13:40.680Z,44.46
2019-02-27T20:16:10.419Z,44.37
2019-02-27T20:18:40.579Z,44.27
2019-02-27T20:21:11.671Z,43.83
2019-02-27T20:23:41.357Z,43.96
2019-02-27T20:26:14.047Z,43.75
2019-02-27T20:28:42.625Z,44.34
2019-02-27T20:31:12.430Z,44.74
2019-02-27T20:33:43.757Z,45.25
2019-02-27T20:36:13.549Z,45.69
2019-02-27T20:38:44.187Z,45.79
2019-02-27T20:41:14.073Z,46.25
2019-02-27T20:43:43.747Z,46.45
2019-02-27T20:46:14.747Z,46.70
2019-02-27T20:48:44.955Z,46.76
2019-02-27T20:51:14.943Z,46.58
2019-02-27T20:53:45.607Z,46.73
2019-02-27T20:56:15.293Z,47.37
2019-02-27T20:58:44.998Z,48.15
2019-02-27T21:01:14.736Z,48.23
2019-02-27T21:03:44.373Z,47.80
2019-02-27T21:06:14.048Z,48.05
2019-02-27T21:08:43.803Z,48.02
2019-02-27T21:11:13.545Z,48.54
2019-02-27T21:13:43.136Z,48.97
2019-02-27T21:16:12.890Z,49.29
2019-02-27T21:18:42.576Z,49.85
2019-02-27T21:21:48.029Z,50.75
2019-02-27T21:24:16.551Z,50.83
2019-02-27T21:26:44.993Z,50.89
2019-02-27T21:29:13.675Z,50.83
2019-02-27T21:31:42.106Z,50.72
2019-02-27T21:34:10.599Z,50.73
2019-02-27T21:36:39.092Z,50.80
2019-02-27T21:39:07.604Z,50.84
2019-02-27T21:41:36.090Z,51.18
2019-02-27T21:44:04.626Z,51.08
2019-02-27T21:46:33.057Z,51.41
2019-02-27T21:49:01.507Z,51.25
2019-02-27T21:51:30.023Z,51.55
2019-02-27T21:54:03.482Z,51.63
2019-02-27T21:56:28.791Z,51.83
2019-02-27T21:58:57.338Z,51.92
2019-02-27T22:01:25.843Z,51.94
2019-02-27T22:03:54.338Z,52.30
2019-02-27T22:06:24.688Z,52.60
2019-02-27T22:08:53.049Z,52.85
2019-02-27T22:11:24.257Z,53.38
2019-02-27T22:13:51.810Z,53.11
2019-02-27T22:16:20.275Z,53.25
2019-02-27T22:18:48.711Z,53.56
2019-02-27T22:21:17.165Z,53.65
2019-02-27T22:23:46.031Z,53.83
2019-02-27T22:26:14.557Z,54.40
2019-02-27T22:28:43.027Z,54.32
2019-02-27T22:31:11.457Z,54.30
2019-02-27T22:33:40.023Z,54.47
2019-02-27T22:36:12.349Z,54.02
2019-02-27T22:38:38.696Z,53.29
2019-02-27T22:41:09.499Z,53.23
2019-02-27T22:43:37.308Z,53.64
2019-02-27T22:46:05.872Z,53.97
2019-02-27T22:48:34.590Z,53.61
2019-02-27T22:51:03.100Z,53.00
2019-02-27T22:53:31.510Z,53.11
2019-02-27T22:55:59.980Z,53.61
2019-02-27T22:58:28.432Z,53.88
2019-02-27T23:01:06.811Z,53.22
2019-02-27T23:03:46.840Z,53.81
2019-02-27T23:06:15.264Z,54.25
2019-02-27T23:08:43.941Z,54.92
2019-02-27T23:11:12.542Z,55.57
2019-02-27T23:13:44.131Z,55.90
2019-02-27T23:16:13.715Z,56.46
2019-02-27T23:18:42.101Z,56.58
2019-02-27T23:21:10.717Z,56.91
2019-02-27T23:23:39.211Z,57.04
2019-02-27T23:26:07.713Z,58.09
2019-02-27T23:28:36.296Z,57.53
2019-02-27T23:31:04.857Z,57.75
2019-02-27T23:33:35.980Z,57.41
2019-02-27T23:36:03.547Z,57.36
2019-02-27T23:38:34.738Z,57.82
2019-02-27T23:41:02.234Z,57.66
2019-02-27T23:43:34.031Z,57.22
2019-02-27T23:46:00.803Z,57.38
2019-02-27T23:48:29.281Z,57.11
2019-02-27T23:50:57.845Z,57.19
2019-02-27T23:53:27.181Z,56.89
2019-02-27T23:55:56.412Z,56.85
2019-02-27T23:58:24.903Z,56.17
